createdAt,value
2018-04-07T00:00:31.068Z,2.93
2018-04-07T00:03:01.739Z,1.47
2018-04-07T00:05:32.464Z,2.10
2018-04-07T00:08:03.198Z,1.73
2018-04-07T00:10:33.930Z,1.33
2018-04-07T00:13:04.873Z,1.90
2018-04-07T00:15:35.605Z,1.93
2018-04-07T00:18:06.335Z,1.80
2018-04-07T00:20:40.148Z,1.30
2018-04-07T00:23:10.939Z,1.93
2018-04-07T00:25:41.471Z,2.43
2018-04-07T00:28:12.139Z,2.00
2018-04-07T00:30:42.871Z,1.37
2018-04-07T00:33:13.605Z,1.40
2018-04-07T00:35:44.544Z,1.10
2018-04-07T00:38:15.278Z,1.83
2018-04-07T00:40:45.861Z,1.33
2018-04-07T00:43:16.644Z,1.97
2018-04-07T00:45:47.375Z,1.37
2018-04-07T00:48:17.959Z,2.80
2018-04-07T00:50:48.493Z,2.00
2018-04-07T00:53:19.168Z,1.30
2018-04-07T00:55:49.903Z,1.33
2018-04-07T00:58:20.632Z,2.00
2018-04-07T01:00:51.315Z,1.17
2018-04-07T01:03:21.851Z,1.07
2018-04-07T01:05:52.478Z,1.70
2018-04-07T01:08:23.157Z,2.50
2018-04-07T01:10:53.893Z,2.10
2018-04-07T01:13:24.622Z,1.47
2018-04-07T01:15:55.420Z,1.30
2018-04-07T01:18:26.089Z,1.83
2018-04-07T01:20:56.824Z,1.17
2018-04-07T01:23:27.457Z,1.20
2018-04-07T01:25:58.598Z,1.40
2018-04-07T01:28:29.331Z,2.17
2018-04-07T01:31:00.073Z,1.20
2018-04-07T01:33:30.806Z,1.20
2018-04-07T01:36:01.558Z,2.00
2018-04-07T01:38:32.218Z,1.33
2018-04-07T01:41:02.644Z,1.53
2018-04-07T01:43:33.321Z,1.83
2018-04-07T01:46:04.056Z,1.30
2018-04-07T01:48:34.789Z,0.90
2018-04-07T01:51:05.420Z,1.37
2018-04-07T01:53:36.154Z,1.80
2018-04-07T01:56:06.887Z,1.37
2018-04-07T01:58:37.625Z,1.47
2018-04-07T02:01:08.253Z,1.10
2018-04-07T02:03:38.836Z,1.50
2018-04-07T02:06:09.515Z,1.10
2018-04-07T02:08:40.247Z,1.43
2018-04-07T02:11:10.981Z,1.50
2018-04-07T02:13:41.715Z,1.57
2018-04-07T02:16:12.655Z,1.10
2018-04-07T02:18:43.597Z,1.10
2018-04-07T02:21:14.176Z,1.10
2018-04-07T02:23:44.908Z,1.10
2018-04-07T02:26:15.588Z,1.00
2018-04-07T02:28:46.525Z,1.03
2018-04-07T02:31:17.259Z,1.40
2018-04-07T02:33:47.991Z,1.10
2018-04-07T02:36:18.728Z,1.10
2018-04-07T02:38:49.306Z,1.50
2018-04-07T02:41:20.452Z,1.30
2018-04-07T02:43:51.131Z,1.73
2018-04-07T02:46:21.863Z,1.27
2018-04-07T02:48:52.451Z,1.30
2018-04-07T02:51:23.131Z,1.73
2018-04-07T02:53:53.714Z,2.13
2018-04-07T02:56:24.390Z,1.40
2018-04-07T02:58:55.327Z,1.33
2018-04-07T03:01:26.061Z,1.10
2018-04-07T03:03:56.797Z,1.10
2018-04-07T03:06:27.529Z,1.10
2018-04-07T03:08:58.118Z,1.57
2018-04-07T03:11:28.789Z,1.10
2018-04-07T03:13:59.522Z,1.00
2018-04-07T03:16:30.256Z,1.10
2018-04-07T03:19:00.834Z,1.30
2018-04-07T03:21:31.522Z,1.43
2018-04-07T03:24:02.457Z,0.90
2018-04-07T03:26:33.044Z,1.20
2018-04-07T03:29:03.923Z,2.03
2018-04-07T03:31:34.503Z,1.10
2018-04-07T03:34:05.185Z,1.93
2018-04-07T03:36:35.776Z,1.10
2018-04-07T03:39:06.446Z,1.30
2018-04-07T03:41:36.976Z,1.20
2018-04-07T03:44:07.571Z,2.80
2018-04-07T03:46:38.195Z,1.00
2018-04-07T03:49:09.014Z,1.60
2018-04-07T03:51:39.909Z,1.20
2018-04-07T03:54:10.642Z,3.10
2018-04-07T03:56:41.582Z,1.00
2018-04-07T03:59:12.987Z,1.13
2018-04-07T04:01:43.689Z,1.50
2018-04-07T04:04:14.253Z,2.80
2018-04-07T04:06:44.925Z,1.27
2018-04-07T04:09:15.664Z,4.23
2018-04-07T04:11:46.251Z,1.13
2018-04-07T04:14:16.920Z,1.30
2018-04-07T04:16:47.861Z,2.07
2018-04-07T04:19:18.592Z,2.37
2018-04-07T04:21:49.327Z,1.60
2018-04-07T04:24:19.907Z,1.10
2018-04-07T04:26:50.587Z,1.13
2018-04-07T04:29:21.322Z,1.20
2018-04-07T04:31:52.063Z,1.20
2018-04-07T04:34:22.790Z,1.13
2018-04-07T04:36:53.732Z,1.73
2018-04-07T04:39:24.462Z,1.00
2018-04-07T04:41:55.193Z,1.40
2018-04-07T04:44:25.776Z,1.37
2018-04-07T04:46:56.661Z,1.33
2018-04-07T04:49:27.255Z,1.10
2018-04-07T04:51:57.924Z,1.57
2018-04-07T04:54:28.655Z,1.20
2018-04-07T04:56:59.391Z,1.83
2018-04-07T04:59:29.972Z,2.90
2018-04-07T05:02:00.508Z,1.67
2018-04-07T05:04:31.180Z,1.50
2018-04-07T05:07:01.914Z,2.40
2018-04-07T05:09:32.442Z,1.37
2018-04-07T05:12:03.176Z,1.70
2018-04-07T05:14:34.114Z,1.60
2018-04-07T05:17:04.703Z,1.40
2018-04-07T05:19:35.223Z,1.97
2018-04-07T05:22:05.959Z,1.77
2018-04-07T05:24:36.702Z,4.10
2018-04-07T05:27:07.375Z,1.40
2018-04-07T05:29:38.107Z,2.23
2018-04-07T05:32:08.839Z,2.13
2018-04-07T05:34:39.574Z,1.67
2018-04-07T05:37:10.320Z,2.00
2018-04-07T05:39:41.044Z,1.87
2018-04-07T05:42:11.771Z,2.10
2018-04-07T05:44:42.506Z,1.27
2018-04-07T05:47:13.120Z,1.43
2018-04-07T05:49:43.770Z,1.60
2018-04-07T05:52:14.503Z,1.80
2018-04-07T05:54:45.442Z,3.93
2018-04-07T05:57:16.377Z,1.90
2018-04-07T05:59:46.959Z,1.23
2018-04-07T06:02:17.641Z,1.70
2018-04-07T06:04:48.579Z,1.40
2018-04-07T06:07:19.311Z,1.13
2018-04-07T06:09:50.045Z,1.83
2018-04-07T06:12:20.780Z,2.10
2018-04-07T06:14:51.375Z,1.30
2018-04-07T06:17:22.045Z,1.70
2018-04-07T06:19:53.239Z,1.50
2018-04-07T06:22:24.124Z,2.07
2018-04-07T06:24:55.266Z,2.47
2018-04-07T06:27:26.004Z,1.30
2018-04-07T06:29:56.950Z,2.43
2018-04-07T06:32:27.945Z,1.93
2018-04-07T06:34:58.608Z,1.87
2018-04-07T06:37:29.137Z,1.77
2018-04-07T06:39:59.727Z,1.87
2018-04-07T06:42:30.400Z,1.60
2018-04-07T06:45:01.138Z,2.07
2018-04-07T06:47:32.043Z,1.53
2018-04-07T06:50:04.442Z,1.47
2018-04-07T06:52:35.178Z,1.30
2018-04-07T06:55:06.059Z,1.77
2018-04-07T06:57:36.746Z,2.60
2018-04-07T07:00:07.483Z,1.80
2018-04-07T07:02:38.217Z,1.73
2018-04-07T07:05:08.951Z,2.97
2018-04-07T07:07:39.887Z,1.40
2018-04-07T07:10:10.468Z,1.40
2018-04-07T07:12:41.352Z,1.40
2018-04-07T07:15:11.940Z,1.90
2018-04-07T07:17:42.716Z,3.30
2018-04-07T07:20:13.458Z,1.20
2018-04-07T07:22:44.405Z,1.73
2018-04-07T07:25:15.120Z,2.17
2018-04-07T07:27:45.724Z,4.77
2018-04-07T07:30:16.238Z,1.63
2018-04-07T07:32:46.912Z,2.53
2018-04-07T07:35:17.853Z,5.40
2018-04-07T07:37:48.556Z,1.70
2018-04-07T07:40:19.524Z,1.60
2018-04-07T07:42:50.051Z,1.20
2018-04-07T07:45:21.470Z,1.30
2018-04-07T07:47:52.199Z,2.43
2018-04-07T07:50:22.864Z,1.33
2018-04-07T07:52:55.600Z,1.73
2018-04-07T07:55:26.351Z,1.50
2018-04-07T07:57:58.251Z,1.90
2018-04-07T08:00:28.976Z,2.50
2018-04-07T08:02:59.708Z,1.50
2018-04-07T08:05:30.440Z,1.20
2018-04-07T08:08:01.380Z,2.47
2018-04-07T08:10:32.115Z,2.03
2018-04-07T08:13:02.846Z,1.70
2018-04-07T08:15:33.578Z,3.00
2018-04-07T08:18:04.314Z,1.60
2018-04-07T08:20:35.068Z,2.17
2018-04-07T08:23:05.780Z,2.07
2018-04-07T08:25:36.368Z,1.40
2018-04-07T08:28:07.043Z,2.27
2018-04-07T08:30:37.775Z,2.37
2018-04-07T08:33:08.723Z,1.70
2018-04-07T08:35:39.422Z,4.60
2018-04-07T08:38:09.978Z,1.60
2018-04-07T08:40:40.771Z,1.40
2018-04-07T08:43:11.647Z,1.43
2018-04-07T08:45:42.382Z,1.60
2018-04-07T08:48:27.964Z,1.97
2018-04-07T08:50:58.701Z,8.73
2018-04-07T08:53:30.498Z,4.37
2018-04-07T08:56:01.391Z,8.37
2018-04-07T08:58:32.243Z,3.80
2018-04-07T09:01:04.311Z,5.27
2018-04-07T09:03:35.850Z,4.20
2018-04-07T09:06:06.784Z,4.53
2018-04-07T09:08:38.135Z,3.37
2018-04-07T09:11:09.684Z,3.73
2018-04-07T09:13:40.420Z,3.83
2018-04-07T09:16:11.360Z,3.60
2018-04-07T09:18:42.096Z,3.97
2018-04-07T09:21:12.892Z,3.10
2018-04-07T09:23:43.557Z,5.47
2018-04-07T09:26:14.290Z,2.23
2018-04-07T09:28:44.877Z,6.80
2018-04-07T09:31:19.853Z,4.07
2018-04-07T09:33:50.587Z,3.57
2018-04-07T09:36:21.320Z,5.90
2018-04-07T09:38:52.054Z,3.40
2018-04-07T09:41:23.197Z,3.50
2018-04-07T09:43:53.930Z,3.83
2018-04-07T09:46:24.670Z,3.97
2018-04-07T09:48:55.386Z,3.67
2018-04-07T09:51:26.131Z,6.80
2018-04-07T09:53:56.864Z,3.20
2018-04-07T09:56:27.597Z,3.03
2018-04-07T09:58:58.310Z,3.63
2018-04-07T10:01:29.682Z,6.87
2018-04-07T10:04:00.269Z,3.10
2018-04-07T10:06:31.150Z,6.73
2018-04-07T10:09:01.742Z,3.80
2018-04-07T10:11:32.480Z,5.03
2018-04-07T10:14:03.346Z,9.10
2018-04-07T10:16:34.064Z,9.10
2018-04-07T10:19:04.679Z,7.80
2018-04-07T10:21:35.345Z,8.93
2018-04-07T10:24:06.076Z,8.97
2018-04-07T10:26:37.022Z,10.13
2018-04-07T10:29:07.903Z,6.80
2018-04-07T10:34:03.140Z,12.73
2018-04-07T10:36:34.422Z,12.03
2018-04-07T10:39:05.563Z,6.77
2018-04-07T10:41:36.092Z,13.90
2018-04-07T10:44:06.887Z,12.23
2018-04-07T10:46:37.557Z,15.40
2018-04-07T10:49:08.445Z,13.67
2018-04-07T10:51:39.147Z,11.23
2018-04-07T10:54:09.946Z,9.20
2018-04-07T10:56:41.002Z,7.40
2018-04-07T10:59:11.531Z,12.23
2018-04-07T11:01:42.124Z,9.10
2018-04-07T11:04:12.800Z,5.20
2018-04-07T11:06:43.740Z,11.63
2018-04-07T11:09:14.681Z,6.13
2018-04-07T11:11:45.261Z,7.33
2018-04-07T11:14:15.933Z,6.13
2018-04-07T11:16:46.665Z,248.30
2018-04-07T11:19:17.401Z,284.83
2018-04-07T11:21:47.941Z,336.77
2018-04-07T11:24:18.558Z,292.33
2018-04-07T11:26:49.194Z,240.57
2018-04-07T11:29:19.921Z,189.00
2018-04-07T11:31:50.827Z,180.77
2018-04-07T11:34:21.611Z,144.50
2018-04-07T11:36:52.537Z,179.57
2018-04-07T11:39:23.339Z,154.40
2018-04-07T11:41:53.901Z,128.07
2018-04-07T11:44:24.736Z,121.30
2018-04-07T11:46:55.364Z,118.62
2018-04-07T11:49:26.005Z,252.73
2018-04-07T11:51:57.005Z,297.90
2018-04-07T11:54:27.668Z,439.07
2018-04-07T11:56:58.400Z,214.20
2018-04-07T11:59:29.134Z,209.07
2018-04-07T12:02:00.074Z,186.67
2018-04-07T12:04:30.806Z,183.70
2018-04-07T12:07:01.541Z,167.23
2018-04-07T12:09:32.340Z,175.37
2018-04-07T12:12:03.013Z,140.10
2018-04-07T12:14:33.641Z,139.13
2018-04-07T12:17:04.472Z,116.03
2018-04-07T12:19:35.416Z,108.17
2018-04-07T12:22:06.013Z,103.17
2018-04-07T12:24:36.674Z,108.60
2018-04-07T12:27:07.258Z,87.93
2018-04-07T12:29:38.142Z,91.67
2018-04-07T12:32:09.079Z,83.33
2018-04-07T12:34:39.822Z,81.00
2018-04-07T12:37:10.852Z,65.80
2018-04-07T12:39:41.484Z,80.37
2018-04-07T12:42:12.438Z,64.67
2018-04-07T12:44:43.156Z,71.70
2018-04-07T12:47:13.762Z,63.30
2018-04-07T12:49:44.416Z,65.27
2018-04-07T12:52:15.153Z,60.47
2018-04-07T12:54:45.885Z,66.17
2018-04-07T12:57:16.826Z,63.77
2018-04-07T12:59:47.453Z,58.23
2018-04-07T13:02:18.158Z,58.13
2018-04-07T13:04:49.143Z,56.20
2018-04-07T13:07:19.935Z,39.60
2018-04-07T13:09:50.802Z,41.30
2018-04-07T13:12:21.845Z,48.77
2018-04-07T13:14:52.440Z,41.13
2018-04-07T13:17:23.305Z,41.43
2018-04-07T13:19:54.039Z,34.13
2018-04-07T13:22:24.914Z,42.73
2018-04-07T13:24:55.609Z,37.63
2018-04-07T13:27:26.223Z,36.50
2018-04-07T13:29:56.872Z,41.40
2018-04-07T13:32:27.607Z,42.73
2018-04-07T13:34:58.439Z,31.13
2018-04-07T13:37:29.071Z,23.13
2018-04-07T13:40:00.907Z,26.77
2018-04-07T13:42:31.561Z,27.57
2018-04-07T13:45:02.296Z,22.50
2018-04-07T13:47:33.234Z,31.57
2018-04-07T13:50:04.030Z,28.40
2018-04-07T13:52:34.908Z,25.00
2018-04-07T13:55:05.859Z,24.33
2018-04-07T13:57:36.580Z,34.93
2018-04-07T14:00:07.515Z,18.90
2018-04-07T14:02:38.106Z,20.53
2018-04-07T14:05:08.651Z,19.97
2018-04-07T14:07:39.309Z,21.93
2018-04-07T14:10:10.046Z,16.17
2018-04-07T14:12:40.984Z,16.23
2018-04-07T14:15:11.713Z,20.37
2018-04-07T14:17:42.651Z,13.27
2018-04-07T14:20:13.457Z,15.30
2018-04-07T14:22:44.327Z,11.60
2018-04-07T14:25:14.952Z,14.23
2018-04-07T14:27:45.859Z,14.57
2018-04-07T14:30:16.389Z,18.07
2018-04-07T14:32:47.053Z,13.43
2018-04-07T14:35:17.783Z,17.37
2018-04-07T14:37:48.387Z,21.53
2018-04-07T14:40:19.250Z,13.63
2018-04-07T14:42:49.958Z,17.43
2018-04-07T14:45:20.924Z,13.23
2018-04-07T14:47:52.280Z,16.47
2018-04-07T14:50:23.006Z,12.53
2018-04-07T14:52:53.806Z,16.00
2018-04-07T14:55:24.471Z,13.90
2018-04-07T14:57:55.205Z,17.13
2018-04-07T15:00:25.940Z,10.43
2018-04-07T15:02:56.659Z,11.33
2018-04-07T15:05:27.613Z,13.93
2018-04-07T15:07:58.549Z,13.70
2018-04-07T15:10:29.142Z,11.93
2018-04-07T15:12:59.670Z,12.10
2018-04-07T15:15:30.544Z,11.37
2018-04-07T15:18:01.279Z,13.10
2018-04-07T15:20:32.197Z,10.60
2018-04-07T15:23:03.154Z,14.43
2018-04-07T15:25:33.890Z,10.23
2018-04-07T15:28:04.828Z,10.40
2018-04-07T15:30:35.561Z,10.73
2018-04-07T15:33:06.366Z,9.00
2018-04-07T15:35:37.233Z,9.57
2018-04-07T15:38:07.967Z,10.97
2018-04-07T15:40:38.690Z,10.43
2018-04-07T15:43:09.438Z,8.80
2018-04-07T15:45:40.374Z,8.13
2018-04-07T15:48:11.587Z,8.00
2018-04-07T15:50:42.318Z,8.00
2018-04-07T15:53:13.048Z,7.63
2018-04-07T15:55:43.921Z,7.47
2018-04-07T15:58:15.332Z,7.90
2018-04-07T16:00:46.276Z,7.60
2018-04-07T16:03:16.947Z,7.33
2018-04-07T16:05:48.349Z,12.27
2018-04-07T16:08:19.227Z,8.47
2018-04-07T16:10:49.858Z,8.10
2018-04-07T16:13:20.592Z,8.10
2018-04-07T16:15:51.181Z,6.40
2018-04-07T16:18:21.852Z,8.07
2018-04-07T16:20:52.794Z,7.33
2018-04-07T16:23:23.525Z,9.47
2018-04-07T16:25:54.113Z,7.17
2018-04-07T16:28:24.994Z,7.20
2018-04-07T16:30:55.583Z,6.90
2018-04-07T16:33:26.294Z,7.20
2018-04-07T16:35:56.897Z,6.77
2018-04-07T16:38:27.631Z,6.83
2018-04-07T16:40:58.210Z,9.43
2018-04-07T16:43:28.883Z,5.87
2018-04-07T16:45:59.614Z,6.63
2018-04-07T16:48:30.349Z,7.90
2018-04-07T16:51:01.082Z,6.30
2018-04-07T16:53:31.816Z,5.67
2018-04-07T16:56:02.556Z,6.97
2018-04-07T16:58:33.283Z,11.93
2018-04-07T17:01:04.118Z,5.90
2018-04-07T17:03:34.713Z,5.77
2018-04-07T17:06:05.381Z,6.70
2018-04-07T17:08:35.970Z,8.20
2018-04-07T17:11:06.600Z,6.00
2018-04-07T17:13:37.274Z,6.20
2018-04-07T17:16:08.219Z,5.47
2018-04-07T17:18:38.946Z,5.10
2018-04-07T17:21:09.891Z,5.87
2018-04-07T17:23:40.675Z,6.60
2018-04-07T17:26:11.456Z,6.40
2018-04-07T17:28:42.074Z,5.80
2018-04-07T17:31:13.432Z,5.47
2018-04-07T17:33:44.371Z,5.80
2018-04-07T17:36:14.949Z,5.60
2018-04-07T17:38:45.840Z,6.23
2018-04-07T17:41:16.646Z,5.37
2018-04-07T17:43:47.371Z,5.90
2018-04-07T17:46:18.242Z,5.10
2018-04-07T17:48:48.857Z,5.20
2018-04-07T17:51:19.715Z,6.20
2018-04-07T17:53:50.443Z,8.57
2018-04-07T17:56:21.396Z,6.70
2018-04-07T17:58:52.319Z,7.67
2018-04-07T18:01:23.259Z,7.53
2018-04-07T18:03:54.196Z,7.27
2018-04-07T18:06:24.916Z,7.50
2018-04-07T18:08:55.878Z,6.80
2018-04-07T18:11:26.573Z,7.40
2018-04-07T18:13:57.336Z,6.57
2018-04-07T18:16:28.283Z,7.83
2018-04-07T18:18:59.011Z,7.10
2018-04-07T18:21:30.291Z,7.17
2018-04-07T18:24:00.961Z,6.97
2018-04-07T18:26:31.590Z,7.70
2018-04-07T18:29:02.461Z,7.53
2018-04-07T18:31:33.393Z,7.23
2018-04-07T18:34:04.227Z,7.40
2018-04-07T18:36:34.962Z,6.80
2018-04-07T18:39:06.303Z,6.23
2018-04-07T18:41:37.258Z,6.60
2018-04-07T18:44:08.185Z,6.63
2018-04-07T18:46:39.604Z,7.93
2018-04-07T18:49:10.475Z,7.10
2018-04-07T18:51:41.317Z,7.50
2018-04-07T18:54:12.044Z,7.97
2018-04-07T18:56:43.051Z,6.87
2018-04-07T18:59:13.718Z,8.37
2018-04-07T19:01:44.668Z,8.07
2018-04-07T19:04:15.388Z,7.40
2018-04-07T19:06:45.983Z,7.97
2018-04-07T19:09:17.000Z,9.17
2018-04-07T19:11:47.895Z,5.53
2018-04-07T19:14:18.638Z,6.43
2018-04-07T19:16:49.227Z,7.30
2018-04-07T19:19:20.566Z,7.17
2018-04-07T19:21:51.241Z,6.67
2018-04-07T19:24:22.047Z,7.93
2018-04-07T19:26:52.707Z,6.73
2018-04-07T19:29:23.652Z,6.83
2018-04-07T19:31:54.179Z,8.43
2018-04-07T19:34:24.904Z,7.77
2018-04-07T19:36:55.640Z,8.80
2018-04-07T19:39:26.430Z,7.47
2018-04-07T19:41:57.224Z,7.37
2018-04-07T19:44:27.956Z,7.70
2018-04-07T19:46:58.675Z,8.23
2018-04-07T19:49:29.409Z,7.67
2018-04-07T19:52:00.349Z,8.57
2018-04-07T19:54:31.287Z,7.47
2018-04-07T19:57:02.223Z,8.03
2018-04-07T19:59:32.957Z,8.30
2018-04-07T20:02:04.110Z,6.67
2018-04-07T20:04:34.914Z,7.13
2018-04-07T20:07:05.603Z,8.83
2018-04-07T20:09:36.505Z,7.90
2018-04-07T20:12:07.412Z,7.73
2018-04-07T20:14:38.177Z,8.00
2018-04-07T20:17:08.981Z,8.63
2018-04-07T20:19:39.718Z,7.60
2018-04-07T20:22:10.378Z,8.70
2018-04-07T20:24:40.979Z,7.87
2018-04-07T20:27:11.642Z,8.00
2018-04-07T20:29:42.439Z,9.00
2018-04-07T20:32:13.108Z,7.53
2018-04-07T20:34:43.820Z,7.80
2018-04-07T20:37:14.576Z,11.83
2018-04-07T20:39:45.178Z,11.97
2018-04-07T20:42:20.201Z,11.40
2018-04-07T20:44:50.944Z,9.93
2018-04-07T20:47:22.013Z,10.13
2018-04-07T20:49:52.747Z,10.83
2018-04-07T20:52:23.336Z,8.20
2018-04-07T20:54:54.214Z,9.10
2018-04-07T20:57:24.948Z,8.97
2018-04-07T20:59:55.743Z,9.37
2018-04-07T21:02:26.373Z,8.53
2018-04-07T21:04:57.148Z,8.67
2018-04-07T21:07:27.743Z,8.03
2018-04-07T21:09:58.410Z,7.90
2018-04-07T21:12:29.004Z,8.07
2018-04-07T21:14:59.541Z,7.40
2018-04-07T21:17:30.202Z,8.37
2018-04-07T21:20:00.935Z,6.23
2018-04-07T21:22:31.668Z,6.27
2018-04-07T21:25:02.374Z,6.63
2018-04-07T21:27:33.118Z,6.70
2018-04-07T21:30:03.723Z,7.00
2018-04-07T21:32:34.400Z,6.70
2018-04-07T21:35:05.952Z,7.37
2018-04-07T21:37:36.889Z,6.20
2018-04-07T21:40:07.507Z,5.90
2018-04-07T21:42:38.148Z,6.57
2018-04-07T21:45:08.757Z,7.17
2018-04-07T21:47:39.269Z,6.37
2018-04-07T21:50:10.158Z,6.00
2018-04-07T21:52:41.138Z,6.50
2018-04-07T21:55:12.024Z,5.17
2018-04-07T21:57:42.741Z,6.67
2018-04-07T22:00:13.346Z,6.00
2018-04-07T22:02:44.222Z,5.30
2018-04-07T22:05:14.950Z,5.13
2018-04-07T22:07:45.895Z,5.90
2018-04-07T22:10:16.693Z,5.70
2018-04-07T22:12:47.576Z,6.50
2018-04-07T22:15:18.309Z,5.73
2018-04-07T22:17:49.196Z,4.83
2018-04-07T22:20:19.976Z,5.77
2018-04-07T22:22:50.706Z,5.20
2018-04-07T22:25:21.644Z,5.47
2018-04-07T22:27:52.239Z,5.00
2018-04-07T22:30:22.763Z,6.00
2018-04-07T22:32:53.293Z,6.53
2018-04-07T22:35:23.963Z,5.10
2018-04-07T22:37:54.701Z,6.10
2018-04-07T22:40:25.636Z,5.10
2018-04-07T22:42:56.573Z,4.80
2018-04-07T22:45:27.306Z,5.43
2018-04-07T22:47:58.044Z,5.63
2018-04-07T22:50:28.762Z,5.40
2018-04-07T22:52:59.373Z,5.83
2018-04-07T22:55:30.039Z,4.80
2018-04-07T22:58:00.978Z,6.33
2018-04-07T23:00:31.913Z,5.07
2018-04-07T23:03:02.507Z,4.80
2018-04-07T23:05:33.175Z,5.30
2018-04-07T23:08:04.115Z,5.70
2018-04-07T23:10:34.859Z,5.23
2018-04-07T23:13:06.509Z,6.40
2018-04-07T23:15:37.125Z,5.07
2018-04-07T23:18:07.784Z,4.83
2018-04-07T23:20:38.461Z,5.27
2018-04-07T23:23:09.172Z,4.90
2018-04-07T23:25:40.066Z,4.23
2018-04-07T23:28:10.802Z,4.70
2018-04-07T23:30:41.536Z,5.87
2018-04-07T23:33:12.472Z,5.10
2018-04-07T23:35:43.207Z,4.73
2018-04-07T23:38:13.938Z,5.00
2018-04-07T23:40:44.468Z,4.97
2018-04-07T23:43:15.204Z,5.30
2018-04-07T23:45:45.936Z,5.33
2018-04-07T23:48:17.085Z,5.67
2018-04-07T23:50:47.885Z,4.90
2018-04-07T23:53:18.545Z,4.90
2018-04-07T23:55:49.482Z,4.47
2018-04-07T23:58:20.215Z,5.20
